createdAt,value
2022-11-24T00:02:05.061Z,98609.50
2022-11-24T00:04:34.996Z,98624.03
2022-11-24T00:07:06.099Z,98629.91
2022-11-24T00:09:35.672Z,98626.25
2022-11-24T00:12:05.988Z,98631.50
2022-11-24T00:14:36.107Z,98635.53
2022-11-24T00:17:06.274Z,98641.41
2022-11-24T00:19:35.819Z,98630.91
2022-11-24T00:22:06.701Z,98629.84
2022-11-24T00:24:36.347Z,98630.22
2022-11-24T00:27:07.270Z,98624.44
2022-11-24T00:29:36.852Z,98635.09
2022-11-24T00:32:07.210Z,98630.63
2022-11-24T00:34:37.093Z,98630.63
2022-11-24T00:37:07.985Z,98626.38
2022-11-24T00:39:37.583Z,98635.91
2022-11-24T00:42:07.024Z,98636.00
2022-11-24T00:44:36.561Z,98635.75
2022-11-24T00:47:06.217Z,98641.75
2022-11-24T00:49:36.375Z,98638.09
2022-11-24T00:52:06.128Z,98645.78
2022-11-24T00:54:36.966Z,98640.63
2022-11-24T00:57:06.489Z,98633.59
2022-11-24T00:59:36.006Z,98639.75
2022-11-24T01:02:05.531Z,98649.56
2022-11-24T01:04:35.405Z,98643.13
2022-11-24T01:07:05.376Z,98643.13
2022-11-24T01:09:34.919Z,98635.44
2022-11-24T01:12:06.700Z,98628.84
2022-11-24T01:14:37.285Z,98636.22
2022-11-24T01:17:07.483Z,98626.84
2022-11-24T01:19:37.063Z,98628.84
2022-11-24T01:22:07.865Z,98631.03
2022-11-24T01:24:41.711Z,98631.50
2022-11-24T01:27:12.753Z,98636.13
2022-11-24T01:29:43.554Z,98626.84
2022-11-24T01:32:13.091Z,98615.22
2022-11-24T01:34:42.678Z,98623.22
2022-11-24T01:37:12.172Z,98624.44
2022-11-24T01:39:41.674Z,98626.53
2022-11-24T01:42:12.553Z,98623.22
2022-11-24T01:44:42.338Z,98619.16
2022-11-24T01:47:25.592Z,98612.88
2022-11-24T01:49:56.969Z,98610.03
2022-11-24T01:52:29.934Z,98609.91
2022-11-24T01:55:00.601Z,98616.34
2022-11-24T01:57:33.447Z,98622.84
2022-11-24T02:00:03.621Z,98619.22
2022-11-24T02:02:33.194Z,98621.88
2022-11-24T02:05:09.226Z,98609.19
2022-11-24T02:07:38.999Z,98614.66
2022-11-24T02:10:11.778Z,98618.06
2022-11-24T02:12:45.124Z,98612.56
2022-11-24T02:15:15.349Z,98619.03
2022-11-24T02:17:45.495Z,98625.88
2022-11-24T02:20:16.399Z,98623.28
2022-11-24T02:22:49.422Z,98620.03
2022-11-24T02:25:24.813Z,98620.22
2022-11-24T02:27:57.142Z,98624.56
2022-11-24T02:30:26.708Z,98627.38
2022-11-24T02:32:56.304Z,98633.69
2022-11-24T02:35:27.144Z,98639.00
2022-11-24T02:37:56.929Z,98628.06
2022-11-24T02:40:27.999Z,98643.16
2022-11-24T02:43:03.472Z,98639.38
2022-11-24T02:45:32.973Z,98636.47
2022-11-24T02:48:02.461Z,98634.94
2022-11-24T02:50:32.399Z,98637.47
2022-11-24T02:53:02.073Z,98639.59
2022-11-24T02:55:31.581Z,98639.31
2022-11-24T02:58:02.690Z,98639.59
2022-11-24T03:00:32.171Z,98638.59
2022-11-24T03:03:01.680Z,98648.13
2022-11-24T03:05:31.225Z,98653.28
2022-11-24T03:08:01.207Z,98647.66
2022-11-24T03:10:31.169Z,98651.75
2022-11-24T03:13:02.673Z,98649.91
2022-11-24T03:15:33.148Z,98650.16
2022-11-24T03:18:02.707Z,98646.56
2022-11-24T03:20:32.476Z,98644.00
2022-11-24T03:23:01.967Z,98652.56
2022-11-24T03:25:31.591Z,98652.97
2022-11-24T03:28:02.444Z,98655.50
2022-11-24T03:30:32.000Z,98656.09
2022-11-24T03:33:01.461Z,98649.91
2022-11-24T03:35:31.045Z,98653.69
2022-11-24T03:38:00.530Z,98653.69
2022-11-24T03:40:30.027Z,98652.97
2022-11-24T03:42:59.562Z,98650.75
2022-11-24T03:45:45.503Z,98652.69
2022-11-24T03:48:16.240Z,98660.00
2022-11-24T03:50:53.356Z,98659.72
2022-11-24T03:53:23.577Z,98664.78
2022-11-24T03:55:53.451Z,98667.28
2022-11-24T03:58:23.761Z,98666.88
2022-11-24T04:00:54.984Z,98667.13
2022-11-24T04:03:25.888Z,98673.28
2022-11-24T04:05:55.413Z,98681.56
2022-11-24T04:08:24.984Z,98670.34
2022-11-24T04:10:55.229Z,98680.44
2022-11-24T04:13:24.761Z,98686.03
2022-11-24T04:15:55.981Z,98680.19
2022-11-24T04:18:25.703Z,98681.72
2022-11-24T04:20:55.159Z,98684.66
2022-11-24T04:23:24.728Z,98676.25
2022-11-24T04:25:54.154Z,98680.59
2022-11-24T04:28:23.785Z,98684.78
2022-11-24T04:30:53.407Z,98684.66
2022-11-24T04:33:24.388Z,98687.59
2022-11-24T04:35:54.275Z,98691.09
2022-11-24T04:39:20.122Z,98692.50
2022-11-24T04:41:13.472Z,98690.53
2022-11-24T04:43:44.245Z,98692.06
2022-11-24T04:46:13.855Z,98702.41
2022-11-24T04:48:48.553Z,98698.50
2022-11-24T04:51:19.375Z,98696.69
2022-11-24T04:53:49.780Z,98702.00
2022-11-24T04:56:19.530Z,98700.31
2022-11-24T04:58:49.081Z,98706.19
2022-11-24T05:01:18.731Z,98707.31
2022-11-24T05:03:49.753Z,98710.78
2022-11-24T05:06:19.372Z,98712.75
2022-11-24T05:08:49.185Z,98708.84
2022-11-24T05:11:19.163Z,98715.97
2022-11-24T05:13:49.626Z,98719.59
2022-11-24T05:16:19.905Z,98717.06
2022-11-24T05:18:51.094Z,98717.66
2022-11-24T05:21:20.667Z,98725.19
2022-11-24T05:23:50.133Z,98726.44
2022-11-24T05:26:19.681Z,98727.31
2022-11-24T05:28:49.157Z,98728.28
2022-11-24T05:31:20.061Z,98726.03
2022-11-24T05:33:51.538Z,98733.06
2022-11-24T05:36:38.795Z,98735.72
2022-11-24T05:39:08.426Z,98743.41
2022-11-24T05:41:37.988Z,98741.44
2022-11-24T05:44:07.917Z,98738.91
2022-11-24T05:46:37.859Z,98747.28
2022-11-24T05:49:09.040Z,98751.91
2022-11-24T05:51:38.672Z,98757.66
2022-11-24T05:54:08.208Z,98762.09
2022-11-24T05:56:37.757Z,98759.72
2022-11-24T05:59:09.974Z,98763.34
2022-11-24T06:01:39.840Z,98762.09
2022-11-24T06:04:10.784Z,98765.31
2022-11-24T06:06:40.603Z,98763.25
2022-11-24T06:09:10.268Z,98768.53
2022-11-24T06:11:40.051Z,98762.41
2022-11-24T06:14:11.488Z,98759.06
2022-11-24T06:16:41.599Z,98766.06
2022-11-24T06:19:12.936Z,98774.44
2022-11-24T06:21:42.568Z,98777.53
2022-11-24T06:24:12.463Z,98774.28
2022-11-24T06:26:42.375Z,98772.34
2022-11-24T06:29:11.948Z,98771.94
2022-11-24T06:31:41.626Z,98780.44
2022-11-24T06:34:13.759Z,98789.28
2022-11-24T06:36:43.301Z,98785.38
2022-11-24T06:39:12.796Z,98792.34
2022-11-24T06:41:42.292Z,98796.16
2022-11-24T06:44:12.019Z,98800.22
2022-11-24T06:46:41.498Z,98795.72
2022-11-24T06:49:12.533Z,98804.13
2022-11-24T06:51:43.073Z,98802.88
2022-11-24T06:54:15.230Z,98800.75
2022-11-24T06:56:44.684Z,98799.50
2022-11-24T06:59:17.455Z,98811.69
2022-11-24T07:01:48.011Z,98806.91
2022-11-24T07:04:19.092Z,98804.97
2022-11-24T07:06:48.844Z,98801.88
2022-11-24T07:09:18.385Z,98803.56
2022-11-24T07:11:48.628Z,98809.69
2022-11-24T07:14:19.266Z,98803.81
2022-11-24T07:16:49.637Z,98812.22
2022-11-24T07:19:24.880Z,98814.13
2022-11-24T07:21:55.003Z,98811.75
2022-11-24T07:24:24.525Z,98814.13
2022-11-24T07:26:54.249Z,98819.84
2022-11-24T07:29:23.840Z,98810.72
2022-11-24T07:31:53.482Z,98820.53
2022-11-24T07:34:24.711Z,98818.41
2022-11-24T07:36:54.338Z,98818.38
2022-11-24T07:39:24.024Z,98818.47
2022-11-24T07:41:53.531Z,98827.13
2022-11-24T07:44:23.090Z,98821.88
2022-11-24T07:46:53.027Z,98820.56
2022-11-24T07:49:24.634Z,98812.38
2022-11-24T07:51:54.351Z,98816.25
2022-11-24T07:54:23.958Z,98817.19
2022-11-24T07:56:53.484Z,98811.09
2022-11-24T07:59:23.472Z,98811.22
2022-11-24T08:01:53.257Z,98812.34
2022-11-24T08:04:24.988Z,98807.56
2022-11-24T08:06:54.448Z,98808.22
2022-11-24T08:09:24.104Z,98804.66
2022-11-24T08:11:54.566Z,98806.47
2022-11-24T08:14:25.024Z,98809.69
2022-11-24T08:16:55.022Z,98810.78
2022-11-24T08:19:26.313Z,98811.38
2022-11-24T08:21:55.956Z,98807.31
2022-11-24T08:24:25.841Z,98808.34
2022-11-24T08:26:55.557Z,98812.59
2022-11-24T08:29:28.647Z,98810.28
2022-11-24T08:31:58.510Z,98814.66
2022-11-24T08:34:29.605Z,98812.69
2022-11-24T08:36:59.584Z,98817.03
2022-11-24T08:39:29.263Z,98811.69
2022-11-24T08:41:59.003Z,98807.84
2022-11-24T08:44:29.168Z,98809.38
2022-11-24T08:46:58.770Z,98815.56
2022-11-24T08:49:29.762Z,98817.13
2022-11-24T08:51:59.705Z,98807.59
2022-11-24T08:54:29.477Z,98807.25
2022-11-24T08:56:59.533Z,98804.47
2022-11-24T08:59:29.274Z,98804.31
2022-11-24T09:01:59.214Z,98809.97
2022-11-24T09:04:30.261Z,98809.50
2022-11-24T09:07:00.055Z,98799.31
2022-11-24T09:09:29.605Z,98804.66
2022-11-24T09:12:00.308Z,98803.16
2022-11-24T09:14:30.362Z,98810.00
2022-11-24T09:17:02.221Z,98810.84
2022-11-24T09:19:33.701Z,98816.19
2022-11-24T09:22:03.440Z,98802.84
2022-11-24T09:24:43.937Z,98801.34
2022-11-24T09:27:13.526Z,98797.66
2022-11-24T09:29:43.207Z,98801.03
2022-11-24T09:32:12.684Z,98797.19
2022-11-24T09:34:43.654Z,98798.53
2022-11-24T09:37:13.248Z,98793.88
2022-11-24T09:39:42.875Z,98787.53
2022-11-24T09:42:15.445Z,98787.03
2022-11-24T09:44:53.099Z,98793.94
2022-11-24T09:47:29.429Z,98783.50
2022-11-24T09:50:02.521Z,98785.06
2022-11-24T09:52:39.289Z,98776.19
2022-11-24T09:55:16.264Z,98780.22
2022-11-24T09:57:45.867Z,98769.38
2022-11-24T10:00:16.134Z,98768.72
2022-11-24T10:02:49.205Z,98774.25
2022-11-24T10:05:20.405Z,98780.13
2022-11-24T10:07:58.510Z,98778.63
2022-11-24T10:10:31.706Z,98776.94
2022-11-24T10:13:17.223Z,98773.63
2022-11-24T10:15:49.247Z,98771.94
2022-11-24T10:18:33.864Z,98763.56
2022-11-24T10:21:12.853Z,98769.38
2022-11-24T10:23:51.303Z,98765.53
2022-11-24T10:26:25.435Z,98760.00
2022-11-24T10:28:56.046Z,98769.22
2022-11-24T10:31:30.744Z,98763.97
2022-11-24T10:34:02.675Z,98753.38
2022-11-24T10:36:39.272Z,98758.56
2022-11-24T10:39:14.489Z,98755.25
2022-11-24T10:41:48.107Z,98754.94
2022-11-24T10:44:17.840Z,98755.78
2022-11-24T10:46:47.702Z,98753.78
2022-11-24T10:49:19.574Z,98751.28
2022-11-24T10:51:57.582Z,98749.59
2022-11-24T10:54:27.314Z,98743.41
2022-11-24T10:56:56.852Z,98743.72
2022-11-24T10:59:32.255Z,98733.81
2022-11-24T11:02:02.765Z,98739.16
2022-11-24T11:04:33.244Z,98740.69
2022-11-24T11:07:16.986Z,98731.13
2022-11-24T11:09:46.910Z,98733.63
2022-11-24T11:12:42.958Z,98732.16
2022-11-24T11:15:23.188Z,98738.16
2022-11-24T11:17:57.430Z,98732.44
2022-11-24T11:20:30.045Z,98738.28
2022-11-24T11:23:02.562Z,98738.47
2022-11-24T11:25:34.260Z,98738.47
2022-11-24T11:28:24.542Z,98737.91
2022-11-24T11:31:17.916Z,98735.75
2022-11-24T11:34:10.619Z,98745.81
2022-11-24T11:36:43.031Z,98740.25
2022-11-24T11:39:21.433Z,98737.56
2022-11-24T11:41:54.748Z,98742.78
2022-11-24T11:44:31.172Z,98747.13
2022-11-24T11:47:02.828Z,98741.75
2022-11-24T11:49:32.402Z,98743.63
2022-11-24T11:52:16.094Z,98742.75
2022-11-24T11:54:57.947Z,98740.72
2022-11-24T11:57:32.261Z,98745.41
2022-11-24T12:00:09.653Z,98748.13
2022-11-24T12:02:57.970Z,98751.69
2022-11-24T12:05:31.066Z,98750.34
2022-11-24T12:08:11.542Z,98747.03
2022-11-24T12:10:47.361Z,98754.94
2022-11-24T12:13:32.936Z,98752.75
2022-11-24T12:16:09.296Z,98756.28
2022-11-24T12:18:59.300Z,98758.97
2022-11-24T12:21:33.612Z,98761.00
2022-11-24T12:24:10.779Z,98752.97
2022-11-24T12:26:45.481Z,98752.63
2022-11-24T12:29:32.115Z,98757.81
2022-11-24T12:32:08.772Z,98754.31
2022-11-24T12:34:44.435Z,98760.84
2022-11-24T12:37:21.943Z,98752.16
2022-11-24T12:39:56.753Z,98753.16
2022-11-24T12:42:35.700Z,98752.31
2022-11-24T12:45:14.145Z,98748.63
2022-11-24T12:47:50.573Z,98755.00
2022-11-24T12:50:21.281Z,98753.50
2022-11-24T12:52:58.459Z,98749.47
2022-11-24T12:55:30.091Z,98746.63
2022-11-24T12:58:11.193Z,98755.47
2022-11-24T13:00:47.451Z,98749.94
2022-11-24T13:03:24.189Z,98750.59
2022-11-24T13:05:58.792Z,98750.28
2022-11-24T13:08:29.223Z,98751.13
2022-11-24T13:11:25.945Z,98750.78
2022-11-24T13:13:59.973Z,98753.28
2022-11-24T13:16:48.525Z,98755.63
2022-11-24T13:19:21.985Z,98750.94
2022-11-24T13:22:01.119Z,98754.13
2022-11-24T13:24:32.184Z,98758.31
2022-11-24T13:27:27.656Z,98756.47
2022-11-24T13:29:58.711Z,98763.16
2022-11-24T13:32:52.256Z,98757.28
2022-11-24T13:35:22.067Z,98765.31
2022-11-24T13:37:52.910Z,98760.50
2022-11-24T13:40:37.621Z,98764.34
2022-11-24T13:43:23.536Z,98765.84
2022-11-24T13:45:54.963Z,98760.34
2022-11-24T13:48:43.220Z,98767.00
2022-11-24T13:51:23.430Z,98753.31
2022-11-24T13:53:54.648Z,98765.03
2022-11-24T13:56:31.610Z,98764.88
2022-11-24T13:59:03.757Z,98779.09
2022-11-24T14:01:37.113Z,98778.59
2022-11-24T14:04:29.805Z,98785.13
2022-11-24T14:07:07.769Z,98775.59
2022-11-24T14:09:41.940Z,98787.31
2022-11-24T14:12:15.767Z,98790.16
2022-11-24T14:14:46.694Z,98796.34
2022-11-24T14:17:19.804Z,98794.00
2022-11-24T14:19:50.525Z,98791.50
2022-11-24T14:22:21.904Z,98800.03
2022-11-24T14:24:55.935Z,98802.19
2022-11-24T14:27:32.689Z,98812.72
2022-11-24T14:30:03.404Z,98818.38
2022-11-24T14:32:34.321Z,98827.25
2022-11-24T14:35:16.450Z,98832.56
2022-11-24T14:37:46.071Z,98829.72
2022-11-24T14:40:30.425Z,98841.91
2022-11-24T14:43:00.074Z,98850.22
2022-11-24T14:45:29.556Z,98861.44
2022-11-24T14:48:00.545Z,98857.53
2022-11-24T14:50:30.240Z,98869.22
2022-11-24T14:53:00.148Z,98876.25
2022-11-24T14:55:30.510Z,98885.97
2022-11-24T14:58:00.981Z,98886.28
2022-11-24T15:00:31.554Z,98892.31
2022-11-24T15:03:17.209Z,98895.31
2022-11-24T15:05:57.212Z,98900.97
2022-11-24T15:08:28.225Z,98912.97
2022-11-24T15:10:59.978Z,98913.47
2022-11-24T15:13:30.884Z,98913.63
2022-11-24T15:16:03.719Z,98910.56
2022-11-24T15:18:37.414Z,98917.22
2022-11-24T15:21:07.213Z,98905.88
2022-11-24T15:23:37.349Z,98917.19
2022-11-24T15:26:24.819Z,98922.97
2022-11-24T15:28:58.800Z,98920.63
2022-11-24T15:31:28.513Z,98920.59
2022-11-24T15:33:59.413Z,98913.41
2022-11-24T15:36:28.986Z,98927.91
2022-11-24T15:38:58.694Z,98926.41
2022-11-24T15:41:29.642Z,98930.69
2022-11-24T15:44:00.190Z,98927.19
2022-11-24T15:46:30.684Z,98935.50
2022-11-24T15:49:01.683Z,98939.47
2022-11-24T15:51:31.903Z,98936.28
2022-11-24T15:54:01.697Z,98940.91
2022-11-24T15:56:32.478Z,98937.03
2022-11-24T15:59:02.543Z,98935.53
2022-11-24T16:01:33.100Z,98934.63
2022-11-24T16:04:04.212Z,98945.06
2022-11-24T16:06:33.781Z,98945.06
2022-11-24T16:09:03.265Z,98945.84
2022-11-24T16:11:32.920Z,98957.09
2022-11-24T16:14:03.124Z,98957.25
2022-11-24T16:16:33.087Z,98961.81
2022-11-24T16:19:04.102Z,98963.66
2022-11-24T16:21:33.574Z,98965.09
2022-11-24T16:24:03.080Z,98971.88
2022-11-24T16:26:32.876Z,98967.97
2022-11-24T16:29:02.457Z,98974.31
2022-11-24T16:31:32.001Z,98975.19
2022-11-24T16:34:01.556Z,98981.81
2022-11-24T16:36:32.486Z,98987.25
2022-11-24T16:39:02.157Z,98994.47
2022-11-24T16:41:31.701Z,99003.06
2022-11-24T16:44:01.239Z,99003.59
2022-11-24T16:46:30.974Z,99007.00
2022-11-24T16:49:01.581Z,99007.69
2022-11-24T16:51:35.002Z,99010.78
2022-11-24T16:54:05.131Z,99007.75
2022-11-24T16:56:34.744Z,99006.31
2022-11-24T16:59:04.544Z,99005.38
2022-11-24T17:01:34.289Z,98951.91
2022-11-24T17:04:07.075Z,99014.94
2022-11-24T17:06:42.079Z,99020.41
2022-11-24T17:09:11.752Z,99015.47
2022-11-24T17:11:42.125Z,99020.28
2022-11-24T17:14:12.408Z,99018.19
2022-11-24T17:16:42.638Z,99018.34
2022-11-24T17:19:12.949Z,99016.78
2022-11-24T17:21:43.904Z,99020.00
2022-11-24T17:24:17.508Z,99019.59
2022-11-24T17:26:49.181Z,99020.28
2022-11-24T17:29:19.051Z,99026.47
2022-11-24T17:31:49.096Z,99022.56
2022-11-24T17:34:18.785Z,99038.25
2022-11-24T17:36:50.104Z,99022.72
2022-11-24T17:39:24.485Z,99023.28
2022-11-24T17:41:54.640Z,99031.81
2022-11-24T17:44:24.231Z,99025.09
2022-11-24T17:46:53.757Z,99033.78
2022-11-24T17:49:23.400Z,99039.41
2022-11-24T17:51:54.284Z,99031.84
2022-11-24T17:54:45.489Z,99033.50
2022-11-24T17:57:13.576Z,99036.88
2022-11-24T17:59:43.870Z,99037.44
2022-11-24T18:02:13.438Z,99043.63
2022-11-24T18:04:43.001Z,99048.94
2022-11-24T18:07:14.032Z,99042.78
2022-11-24T18:09:44.138Z,99039.69
2022-11-24T18:12:13.693Z,99048.53
2022-11-24T18:14:43.703Z,99043.31
2022-11-24T18:17:13.312Z,99057.47
2022-11-24T18:19:42.894Z,99046.41
2022-11-24T18:22:14.076Z,99050.59
2022-11-24T18:24:43.809Z,99044.44
2022-11-24T18:27:13.612Z,99055.63
2022-11-24T18:29:43.383Z,99052.41
2022-11-24T18:32:13.120Z,99053.94
2022-11-24T18:34:42.723Z,99056.47
2022-11-24T18:37:13.576Z,99059.81
2022-11-24T18:39:44.526Z,99053.94
2022-11-24T18:42:14.174Z,99062.75
2022-11-24T18:44:45.415Z,99055.09
2022-11-24T18:47:17.319Z,99060.25
2022-11-24T18:49:46.980Z,99054.53
2022-11-24T18:52:16.856Z,99056.78
2022-11-24T18:54:47.997Z,99061.94
2022-11-24T18:57:17.754Z,99060.09
2022-11-24T18:59:47.701Z,99050.59
2022-11-24T19:02:17.463Z,99058.72
2022-11-24T19:04:47.462Z,99053.53
2022-11-24T19:07:17.426Z,99049.47
2022-11-24T19:09:48.592Z,99047.09
2022-11-24T19:12:19.638Z,99048.66
2022-11-24T19:14:49.946Z,99052.56
2022-11-24T19:17:20.277Z,99052.72
2022-11-24T19:19:49.887Z,99048.66
2022-11-24T19:22:19.569Z,99054.94
2022-11-24T19:24:50.872Z,99064.03
2022-11-24T19:27:21.940Z,99061.38
2022-11-24T19:29:51.671Z,99057.19
2022-11-24T19:32:21.244Z,99060.84
2022-11-24T19:34:50.845Z,99069.22
2022-11-24T19:37:21.558Z,99064.75
2022-11-24T19:39:52.728Z,99063.63
2022-11-24T19:42:22.364Z,99067.41
2022-11-24T19:44:56.378Z,99075.13
2022-11-24T19:47:27.927Z,99064.47
2022-11-24T19:49:57.547Z,99061.81
2022-11-24T19:52:27.351Z,99085.50
2022-11-24T19:54:59.858Z,99072.72
2022-11-24T19:57:29.624Z,99078.19
2022-11-24T19:59:59.366Z,99093.06
2022-11-24T20:02:29.956Z,99081.41
2022-11-24T20:04:59.634Z,99078.34
2022-11-24T20:07:29.363Z,99085.19
2022-11-24T20:10:06.237Z,99092.34
2022-11-24T20:12:37.853Z,99088.72
2022-11-24T20:15:08.619Z,99090.09
2022-11-24T20:17:38.809Z,99099.50
2022-11-24T20:20:08.658Z,99095.28
2022-11-24T20:22:38.294Z,99094.03
2022-11-24T20:25:10.996Z,99108.31
2022-11-24T20:27:40.759Z,99097.38
2022-11-24T20:30:11.015Z,99096.13
2022-11-24T20:32:40.851Z,99108.72
2022-11-24T20:35:15.085Z,99106.50
2022-11-24T20:37:47.800Z,99111.53
2022-11-24T20:40:19.032Z,99131.41
2022-11-24T20:42:48.648Z,99123.69
2022-11-24T20:45:18.219Z,99133.47
2022-11-24T20:47:47.874Z,99135.16
2022-11-24T20:50:17.605Z,99139.66
2022-11-24T20:52:47.361Z,99143.47
2022-11-24T20:55:18.301Z,99144.97
2022-11-24T20:57:48.246Z,99145.69
2022-11-24T21:00:18.495Z,99160.13
2022-11-24T21:02:48.045Z,99149.22
2022-11-24T21:05:17.680Z,99151.00
2022-11-24T21:07:47.554Z,99146.91
2022-11-24T21:10:18.827Z,99150.88
2022-11-24T21:12:48.783Z,99158.03
2022-11-24T21:15:18.753Z,99165.16
2022-11-24T21:17:48.540Z,99165.16
2022-11-24T21:20:18.179Z,99159.56
2022-11-24T21:22:47.680Z,99162.38
2022-11-24T21:25:19.060Z,99166.69
2022-11-24T21:27:48.622Z,99164.59
2022-11-24T21:30:18.243Z,99161.09
2022-11-24T21:32:47.764Z,99159.94
2022-11-24T21:35:17.378Z,99162.63
2022-11-24T21:37:46.905Z,99158.56
2022-11-24T21:40:16.610Z,99148.63
2022-11-24T21:42:47.468Z,99148.63
2022-11-24T21:45:17.005Z,99157.56
2022-11-24T21:47:47.540Z,99152.38
2022-11-24T21:50:17.312Z,99153.09
2022-11-24T21:52:47.605Z,99150.44
2022-11-24T21:55:17.118Z,99156.31
2022-11-24T21:57:48.059Z,99157.56
2022-11-24T22:00:18.105Z,99167.50
2022-11-24T22:02:47.940Z,99161.38
2022-11-24T22:05:17.545Z,99167.38
2022-11-24T22:07:47.506Z,99169.91
2022-11-24T22:10:17.197Z,99162.31
2022-11-24T22:12:50.079Z,99148.88
2022-11-24T22:15:20.033Z,99153.94
2022-11-24T22:17:49.588Z,99152.50
2022-11-24T22:20:19.188Z,99147.34
2022-11-24T22:22:48.775Z,99151.09
2022-11-24T22:25:18.313Z,99148.19
2022-11-24T22:27:47.801Z,99150.41
2022-11-24T22:30:19.067Z,99142.41
2022-11-24T22:32:48.687Z,99155.31
2022-11-24T22:35:18.186Z,99148.72
2022-11-24T22:37:47.944Z,99154.03
2022-11-24T22:40:17.611Z,99147.28
2022-11-24T22:42:47.543Z,99159.34
2022-11-24T22:45:18.524Z,99158.13
2022-11-24T22:47:48.124Z,99158.13
2022-11-24T22:50:17.598Z,99158.13
2022-11-24T22:52:47.394Z,99160.34
2022-11-24T22:55:17.056Z,99148.56
2022-11-24T22:57:48.391Z,99167.88
2022-11-24T23:00:20.019Z,99146.59
2022-11-24T23:02:49.664Z,99151.38
2022-11-24T23:05:20.878Z,99155.13
2022-11-24T23:07:50.677Z,99159.50
2022-11-24T23:10:20.261Z,99153.59
2022-11-24T23:12:51.013Z,99141.81
2022-11-24T23:15:22.403Z,99141.41
2022-11-24T23:17:51.869Z,99145.63
2022-11-24T23:20:21.475Z,99153.34
2022-11-24T23:22:50.939Z,99162.81
2022-11-24T23:25:20.528Z,99152.31
2022-11-24T23:27:50.194Z,99169.09
2022-11-24T23:30:19.783Z,99157.22
2022-11-24T23:32:50.775Z,99157.78
2022-11-24T23:35:20.284Z,99169.25
2022-11-24T23:38:07.147Z,99170.06
2022-11-24T23:40:37.469Z,99177.63
2022-11-24T23:43:07.292Z,99170.22
2022-11-24T23:45:36.914Z,99171.34
2022-11-24T23:48:09.026Z,99171.34
2022-11-24T23:50:38.521Z,99176.22
2022-11-24T23:53:08.020Z,99177.03
2022-11-24T23:55:37.678Z,99177.91
2022-11-24T23:58:07.186Z,99175.25
